sensor_id;sensor_type;location;lat;lon;timestamp;P1;durP1;ratioP1;P2;durP2;ratioP2
46407;SDS011;32110;45.724;21.276;2024-02-16T00:00:16;36.85;;;19.00;;
46407;SDS011;32110;45.724;21.276;2024-02-16T00:02:42;39.53;;;18.75;;
46407;SDS011;32110;45.724;21.276;2024-02-16T00:05:09;45.78;;;20.15;;
46407;SDS011;32110;45.724;21.276;2024-02-16T00:07:36;54.53;;;23.67;;
46407;SDS011;32110;45.724;21.276;2024-02-16T00:10:03;72.03;;;30.00;;
46407;SDS011;32110;45.724;21.276;2024-02-16T00:14:58;86.25;;;38.30;;
46407;SDS011;32110;45.724;21.276;2024-02-16T00:17:24;64.22;;;28.60;;
46407;SDS011;32110;45.724;21.276;2024-02-16T00:19:53;51.53;;;24.02;;
46407;SDS011;32110;45.724;21.276;2024-02-16T00:22:22;47.28;;;22.08;;
46407;SDS011;32110;45.724;21.276;2024-02-16T00:24:48;47.72;;;21.65;;
46407;SDS011;32110;45.724;21.276;2024-02-16T00:27:14;50.22;;;23.98;;
46407;SDS011;32110;45.724;21.276;2024-02-16T00:29:40;50.22;;;23.90;;
46407;SDS011;32110;45.724;21.276;2024-02-16T00:32:06;44.47;;;21.85;;
46407;SDS011;32110;45.724;21.276;2024-02-16T00:34:32;43.40;;;20.77;;
46407;SDS011;32110;45.724;21.276;2024-02-16T00:36:59;40.15;;;19.40;;
46407;SDS011;32110;45.724;21.276;2024-02-16T00:39:25;41.65;;;20.02;;
46407;SDS011;32110;45.724;21.276;2024-02-16T00:41:50;44.92;;;20.63;;
46407;SDS011;32110;45.724;21.276;2024-02-16T00:44:16;45.28;;;20.35;;
46407;SDS011;32110;45.724;21.276;2024-02-16T00:46:42;40.90;;;17.23;;
46407;SDS011;32110;45.724;21.276;2024-02-16T00:49:11;36.33;;;17.00;;
46407;SDS011;32110;45.724;21.276;2024-02-16T00:51:37;32.85;;;16.50;;
46407;SDS011;32110;45.724;21.276;2024-02-16T00:54:03;33.22;;;16.42;;
46407;SDS011;32110;45.724;21.276;2024-02-16T00:56:28;34.70;;;17.15;;
46407;SDS011;32110;45.724;21.276;2024-02-16T00:58:55;34.47;;;17.55;;
46407;SDS011;32110;45.724;21.276;2024-02-16T01:01:21;40.78;;;17.42;;
46407;SDS011;32110;45.724;21.276;2024-02-16T01:03:47;40.65;;;18.63;;
46407;SDS011;32110;45.724;21.276;2024-02-16T01:06:13;40.45;;;19.10;;
46407;SDS011;32110;45.724;21.276;2024-02-16T01:08:39;42.97;;;19.00;;
46407;SDS011;32110;45.724;21.276;2024-02-16T01:11:05;40.72;;;18.85;;
46407;SDS011;32110;45.724;21.276;2024-02-16T01:13:30;38.75;;;19.40;;
46407;SDS011;32110;45.724;21.276;2024-02-16T01:15:56;43.75;;;19.35;;
46407;SDS011;32110;45.724;21.276;2024-02-16T01:18:22;43.00;;;19.33;;
46407;SDS011;32110;45.724;21.276;2024-02-16T01:20:47;40.72;;;19.35;;
46407;SDS011;32110;45.724;21.276;2024-02-16T01:23:13;50.72;;;21.90;;
46407;SDS011;32110;45.724;21.276;2024-02-16T01:25:38;44.20;;;20.15;;
46407;SDS011;32110;45.724;21.276;2024-02-16T01:28:04;44.45;;;21.17;;
46407;SDS011;32110;45.724;21.276;2024-02-16T01:30:29;44.67;;;20.25;;
46407;SDS011;32110;45.724;21.276;2024-02-16T01:32:55;53.55;;;24.00;;
46407;SDS011;32110;45.724;21.276;2024-02-16T01:35:20;50.97;;;23.70;;
46407;SDS011;32110;45.724;21.276;2024-02-16T01:37:45;54.42;;;24.02;;
46407;SDS011;32110;45.724;21.276;2024-02-16T01:40:12;45.17;;;21.35;;
46407;SDS011;32110;45.724;21.276;2024-02-16T01:42:43;47.05;;;21.33;;
46407;SDS011;32110;45.724;21.276;2024-02-16T01:45:09;47.72;;;21.90;;
46407;SDS011;32110;45.724;21.276;2024-02-16T01:47:37;47.97;;;20.20;;
46407;SDS011;32110;45.724;21.276;2024-02-16T01:50:03;52.92;;;22.77;;
46407;SDS011;32110;45.724;21.276;2024-02-16T01:52:30;52.35;;;23.75;;
46407;SDS011;32110;45.724;21.276;2024-02-16T01:54:59;44.63;;;21.90;;
46407;SDS011;32110;45.724;21.276;2024-02-16T01:57:24;34.42;;;16.00;;
46407;SDS011;32110;45.724;21.276;2024-02-16T01:59:50;46.53;;;20.45;;
46407;SDS011;32110;45.724;21.276;2024-02-16T02:02:16;42.75;;;20.88;;
46407;SDS011;32110;45.724;21.276;2024-02-16T02:04:41;46.75;;;20.85;;
46407;SDS011;32110;45.724;21.276;2024-02-16T02:07:14;43.05;;;19.65;;
46407;SDS011;32110;45.724;21.276;2024-02-16T02:09:40;43.53;;;20.23;;
46407;SDS011;32110;45.724;21.276;2024-02-16T02:12:06;39.35;;;18.67;;
46407;SDS011;32110;45.724;21.276;2024-02-16T02:14:33;41.50;;;20.77;;
46407;SDS011;32110;45.724;21.276;2024-02-16T02:16:58;47.25;;;20.83;;
46407;SDS011;32110;45.724;21.276;2024-02-16T02:19:23;40.38;;;19.60;;
46407;SDS011;32110;45.724;21.276;2024-02-16T02:21:49;44.15;;;19.45;;
46407;SDS011;32110;45.724;21.276;2024-02-16T02:24:15;38.78;;;18.85;;
46407;SDS011;32110;45.724;21.276;2024-02-16T02:26:41;42.38;;;19.30;;
46407;SDS011;32110;45.724;21.276;2024-02-16T02:29:07;42.60;;;19.60;;
46407;SDS011;32110;45.724;21.276;2024-02-16T02:31:32;42.03;;;18.67;;
46407;SDS011;32110;45.724;21.276;2024-02-16T02:33:58;35.92;;;17.00;;
46407;SDS011;32110;45.724;21.276;2024-02-16T02:36:23;34.13;;;17.25;;
46407;SDS011;32110;45.724;21.276;2024-02-16T02:38:49;33.55;;;17.48;;
46407;SDS011;32110;45.724;21.276;2024-02-16T02:41:15;38.70;;;18.23;;
46407;SDS011;32110;45.724;21.276;2024-02-16T02:43:42;36.08;;;17.83;;
46407;SDS011;32110;45.724;21.276;2024-02-16T02:46:08;36.45;;;17.75;;
46407;SDS011;32110;45.724;21.276;2024-02-16T02:48:33;38.88;;;17.70;;
46407;SDS011;32110;45.724;21.276;2024-02-16T02:50:59;36.42;;;17.13;;
46407;SDS011;32110;45.724;21.276;2024-02-16T02:53:27;36.13;;;17.15;;
46407;SDS011;32110;45.724;21.276;2024-02-16T02:55:54;32.70;;;17.10;;
46407;SDS011;32110;45.724;21.276;2024-02-16T02:58:19;38.75;;;17.52;;
46407;SDS011;32110;45.724;21.276;2024-02-16T03:00:45;38.85;;;17.73;;
46407;SDS011;32110;45.724;21.276;2024-02-16T03:03:10;35.83;;;17.25;;
46407;SDS011;32110;45.724;21.276;2024-02-16T03:05:36;33.50;;;17.25;;
46407;SDS011;32110;45.724;21.276;2024-02-16T03:08:01;37.83;;;17.48;;
46407;SDS011;32110;45.724;21.276;2024-02-16T03:10:27;36.35;;;17.75;;
46407;SDS011;32110;45.724;21.276;2024-02-16T03:12:59;42.20;;;17.63;;
46407;SDS011;32110;45.724;21.276;2024-02-16T03:15:25;36.33;;;18.52;;
46407;SDS011;32110;45.724;21.276;2024-02-16T03:17:50;38.85;;;18.25;;
46407;SDS011;32110;45.724;21.276;2024-02-16T03:20:16;31.80;;;16.35;;
46407;SDS011;32110;45.724;21.276;2024-02-16T03:22:41;35.83;;;17.20;;
46407;SDS011;32110;45.724;21.276;2024-02-16T03:25:07;37.90;;;17.05;;
46407;SDS011;32110;45.724;21.276;2024-02-16T03:27:33;38.95;;;17.73;;
46407;SDS011;32110;45.724;21.276;2024-02-16T03:29:59;38.70;;;16.73;;
46407;SDS011;32110;45.724;21.276;2024-02-16T03:32:24;39.10;;;17.70;;
46407;SDS011;32110;45.724;21.276;2024-02-16T03:34:50;39.28;;;17.67;;
46407;SDS011;32110;45.724;21.276;2024-02-16T03:37:15;42.38;;;16.98;;
46407;SDS011;32110;45.724;21.276;2024-02-16T03:39:41;34.35;;;17.30;;
46407;SDS011;32110;45.724;21.276;2024-02-16T03:42:06;37.83;;;17.23;;
46407;SDS011;32110;45.724;21.276;2024-02-16T03:44:32;39.45;;;17.25;;
46407;SDS011;32110;45.724;21.276;2024-02-16T03:46:57;38.63;;;17.35;;
46407;SDS011;32110;45.724;21.276;2024-02-16T03:49:24;34.30;;;16.35;;
46407;SDS011;32110;45.724;21.276;2024-02-16T03:51:52;38.28;;;16.92;;
46407;SDS011;32110;45.724;21.276;2024-02-16T03:54:18;41.70;;;17.33;;
46407;SDS011;32110;45.724;21.276;2024-02-16T03:56:43;35.13;;;16.60;;
46407;SDS011;32110;45.724;21.276;2024-02-16T03:59:10;37.03;;;17.48;;
46407;SDS011;32110;45.724;21.276;2024-02-16T04:01:36;34.65;;;16.13;;
46407;SDS011;32110;45.724;21.276;2024-02-16T04:04:01;36.25;;;17.50;;
46407;SDS011;32110;45.724;21.276;2024-02-16T04:06:28;38.72;;;17.65;;
46407;SDS011;32110;45.724;21.276;2024-02-16T04:08:54;35.53;;;17.13;;
46407;SDS011;32110;45.724;21.276;2024-02-16T04:11:21;34.22;;;16.98;;
46407;SDS011;32110;45.724;21.276;2024-02-16T04:13:46;35.67;;;17.42;;
46407;SDS011;32110;45.724;21.276;2024-02-16T04:16:12;36.50;;;16.90;;
46407;SDS011;32110;45.724;21.276;2024-02-16T04:18:37;39.25;;;19.20;;
46407;SDS011;32110;45.724;21.276;2024-02-16T04:21:03;37.05;;;17.75;;
46407;SDS011;32110;45.724;21.276;2024-02-16T04:23:29;47.40;;;19.00;;
46407;SDS011;32110;45.724;21.276;2024-02-16T04:25:54;44.35;;;20.02;;
46407;SDS011;32110;45.724;21.276;2024-02-16T04:28:20;47.83;;;19.88;;
46407;SDS011;32110;45.724;21.276;2024-02-16T04:30:45;45.75;;;19.58;;
46407;SDS011;32110;45.724;21.276;2024-02-16T04:33:11;39.45;;;18.80;;
46407;SDS011;32110;45.724;21.276;2024-02-16T04:35:36;45.50;;;19.52;;
46407;SDS011;32110;45.724;21.276;2024-02-16T04:38:02;42.50;;;18.90;;
46407;SDS011;32110;45.724;21.276;2024-02-16T04:40:27;41.20;;;18.42;;
46407;SDS011;32110;45.724;21.276;2024-02-16T04:42:53;45.75;;;18.63;;
46407;SDS011;32110;45.724;21.276;2024-02-16T04:45:18;40.40;;;18.60;;
46407;SDS011;32110;45.724;21.276;2024-02-16T04:47:45;44.58;;;18.77;;
46407;SDS011;32110;45.724;21.276;2024-02-16T04:50:10;43.92;;;20.13;;
46407;SDS011;32110;45.724;21.276;2024-02-16T04:52:36;50.70;;;21.67;;
46407;SDS011;32110;45.724;21.276;2024-02-16T04:55:03;41.95;;;21.60;;
46407;SDS011;32110;45.724;21.276;2024-02-16T04:57:29;42.72;;;21.27;;
46407;SDS011;32110;45.724;21.276;2024-02-16T04:59:54;44.55;;;21.73;;
46407;SDS011;32110;45.724;21.276;2024-02-16T05:02:19;44.97;;;20.15;;
46407;SDS011;32110;45.724;21.276;2024-02-16T05:04:45;42.10;;;20.13;;
46407;SDS011;32110;45.724;21.276;2024-02-16T05:07:10;46.67;;;20.02;;
46407;SDS011;32110;45.724;21.276;2024-02-16T05:09:36;44.35;;;20.63;;
46407;SDS011;32110;45.724;21.276;2024-02-16T05:12:02;45.75;;;21.00;;
46407;SDS011;32110;45.724;21.276;2024-02-16T05:14:27;49.05;;;21.05;;
46407;SDS011;32110;45.724;21.276;2024-02-16T05:16:53;39.38;;;18.55;;
46407;SDS011;32110;45.724;21.276;2024-02-16T05:19:18;45.85;;;19.95;;
46407;SDS011;32110;45.724;21.276;2024-02-16T05:21:44;43.58;;;19.33;;
46407;SDS011;32110;45.724;21.276;2024-02-16T05:24:09;44.85;;;20.55;;
46407;SDS011;32110;45.724;21.276;2024-02-16T05:26:36;44.95;;;20.92;;
46407;SDS011;32110;45.724;21.276;2024-02-16T05:29:02;50.95;;;21.92;;
46407;SDS011;32110;45.724;21.276;2024-02-16T05:31:27;47.65;;;21.00;;
46407;SDS011;32110;45.724;21.276;2024-02-16T05:33:52;46.75;;;20.70;;
46407;SDS011;32110;45.724;21.276;2024-02-16T05:36:18;47.85;;;19.67;;
46407;SDS011;32110;45.724;21.276;2024-02-16T05:38:46;41.75;;;18.58;;
46407;SDS011;32110;45.724;21.276;2024-02-16T05:41:12;43.70;;;20.35;;
46407;SDS011;32110;45.724;21.276;2024-02-16T05:43:37;52.63;;;21.90;;
46407;SDS011;32110;45.724;21.276;2024-02-16T05:46:03;56.72;;;23.25;;
46407;SDS011;32110;45.724;21.276;2024-02-16T05:48:32;52.67;;;22.33;;
46407;SDS011;32110;45.724;21.276;2024-02-16T05:51:00;45.28;;;19.98;;
46407;SDS011;32110;45.724;21.276;2024-02-16T05:53:26;45.20;;;20.30;;
46407;SDS011;32110;45.724;21.276;2024-02-16T05:55:53;47.13;;;19.27;;
46407;SDS011;32110;45.724;21.276;2024-02-16T05:58:20;44.67;;;18.45;;
46407;SDS011;32110;45.724;21.276;2024-02-16T06:00:45;38.80;;;18.40;;
46407;SDS011;32110;45.724;21.276;2024-02-16T06:03:12;40.85;;;19.35;;
46407;SDS011;32110;45.724;21.276;2024-02-16T06:05:38;43.35;;;18.52;;
46407;SDS011;32110;45.724;21.276;2024-02-16T06:08:05;42.28;;;18.95;;
46407;SDS011;32110;45.724;21.276;2024-02-16T06:10:32;39.92;;;18.23;;
46407;SDS011;32110;45.724;21.276;2024-02-16T06:12:58;43.05;;;18.92;;
46407;SDS011;32110;45.724;21.276;2024-02-16T06:15:24;38.55;;;18.63;;
46407;SDS011;32110;45.724;21.276;2024-02-16T06:17:50;46.38;;;19.70;;
46407;SDS011;32110;45.724;21.276;2024-02-16T06:20:16;44.25;;;19.25;;
46407;SDS011;32110;45.724;21.276;2024-02-16T06:22:41;40.30;;;18.40;;
46407;SDS011;32110;45.724;21.276;2024-02-16T06:25:07;38.90;;;17.45;;
46407;SDS011;32110;45.724;21.276;2024-02-16T06:27:33;37.20;;;17.77;;
46407;SDS011;32110;45.724;21.276;2024-02-16T06:29:58;40.40;;;17.55;;
46407;SDS011;32110;45.724;21.276;2024-02-16T06:32:24;34.30;;;16.75;;
46407;SDS011;32110;45.724;21.276;2024-02-16T06:34:49;37.90;;;16.33;;
46407;SDS011;32110;45.724;21.276;2024-02-16T06:37:15;31.17;;;15.00;;
46407;SDS011;32110;45.724;21.276;2024-02-16T06:39:40;35.20;;;15.18;;
46407;SDS011;32110;45.724;21.276;2024-02-16T06:42:06;35.03;;;14.70;;
46407;SDS011;32110;45.724;21.276;2024-02-16T06:44:31;32.90;;;14.85;;
46407;SDS011;32110;45.724;21.276;2024-02-16T06:46:58;31.75;;;14.63;;
46407;SDS011;32110;45.724;21.276;2024-02-16T06:49:23;29.58;;;14.43;;
46407;SDS011;32110;45.724;21.276;2024-02-16T06:51:49;33.90;;;14.80;;
46407;SDS011;32110;45.724;21.276;2024-02-16T06:54:14;29.90;;;13.90;;
46407;SDS011;32110;45.724;21.276;2024-02-16T06:56:40;32.05;;;14.90;;
46407;SDS011;32110;45.724;21.276;2024-02-16T06:59:05;36.67;;;15.35;;
46407;SDS011;32110;45.724;21.276;2024-02-16T07:01:31;39.83;;;15.68;;
46407;SDS011;32110;45.724;21.276;2024-02-16T07:03:57;37.65;;;16.80;;
46407;SDS011;32110;45.724;21.276;2024-02-16T07:06:22;37.47;;;16.67;;
46407;SDS011;32110;45.724;21.276;2024-02-16T07:08:48;39.25;;;18.38;;
46407;SDS011;32110;45.724;21.276;2024-02-16T07:11:13;42.13;;;17.67;;
46407;SDS011;32110;45.724;21.276;2024-02-16T07:13:39;39.08;;;17.30;;
46407;SDS011;32110;45.724;21.276;2024-02-16T07:16:05;40.38;;;17.65;;
46407;SDS011;32110;45.724;21.276;2024-02-16T07:18:34;40.00;;;17.27;;
46407;SDS011;32110;45.724;21.276;2024-02-16T07:21:00;44.78;;;17.70;;
46407;SDS011;32110;45.724;21.276;2024-02-16T07:23:26;35.28;;;16.35;;
46407;SDS011;32110;45.724;21.276;2024-02-16T07:25:52;43.58;;;17.25;;
46407;SDS011;32110;45.724;21.276;2024-02-16T07:28:23;33.60;;;15.18;;
46407;SDS011;32110;45.724;21.276;2024-02-16T07:30:49;32.67;;;13.60;;
46407;SDS011;32110;45.724;21.276;2024-02-16T07:33:15;35.88;;;14.77;;
46407;SDS011;32110;45.724;21.276;2024-02-16T07:35:41;30.27;;;12.93;;
46407;SDS011;32110;45.724;21.276;2024-02-16T07:38:06;27.23;;;12.88;;
46407;SDS011;32110;45.724;21.276;2024-02-16T07:40:32;30.70;;;13.07;;
46407;SDS011;32110;45.724;21.276;2024-02-16T07:42:58;27.20;;;12.38;;
46407;SDS011;32110;45.724;21.276;2024-02-16T07:45:23;28.58;;;12.98;;
46407;SDS011;32110;45.724;21.276;2024-02-16T07:47:50;26.08;;;11.93;;
46407;SDS011;32110;45.724;21.276;2024-02-16T07:50:19;28.35;;;11.85;;
46407;SDS011;32110;45.724;21.276;2024-02-16T07:52:45;25.48;;;11.77;;
46407;SDS011;32110;45.724;21.276;2024-02-16T07:55:11;21.65;;;12.07;;
46407;SDS011;32110;45.724;21.276;2024-02-16T07:57:37;24.42;;;10.95;;
46407;SDS011;32110;45.724;21.276;2024-02-16T08:00:03;21.23;;;10.20;;
46407;SDS011;32110;45.724;21.276;2024-02-16T08:02:30;23.73;;;9.98;;
46407;SDS011;32110;45.724;21.276;2024-02-16T08:04:56;31.13;;;10.48;;
46407;SDS011;32110;45.724;21.276;2024-02-16T08:07:21;21.73;;;10.85;;
46407;SDS011;32110;45.724;21.276;2024-02-16T08:09:47;22.20;;;10.70;;
46407;SDS011;32110;45.724;21.276;2024-02-16T08:12:13;21.83;;;10.57;;
46407;SDS011;32110;45.724;21.276;2024-02-16T08:14:39;23.02;;;10.55;;
46407;SDS011;32110;45.724;21.276;2024-02-16T08:17:08;21.55;;;9.27;;
46407;SDS011;32110;45.724;21.276;2024-02-16T08:22:01;19.30;;;9.55;;
46407;SDS011;32110;45.724;21.276;2024-02-16T08:24:34;18.15;;;9.70;;
46407;SDS011;32110;45.724;21.276;2024-02-16T08:27:00;20.15;;;10.63;;
46407;SDS011;32110;45.724;21.276;2024-02-16T08:29:26;21.88;;;10.73;;
46407;SDS011;32110;45.724;21.276;2024-02-16T08:31:52;24.05;;;10.52;;
46407;SDS011;32110;45.724;21.276;2024-02-16T08:34:19;24.40;;;11.15;;
46407;SDS011;32110;45.724;21.276;2024-02-16T08:36:47;21.58;;;10.65;;
46407;SDS011;32110;45.724;21.276;2024-02-16T08:41:40;20.70;;;11.05;;
46407;SDS011;32110;45.724;21.276;2024-02-16T08:44:06;25.70;;;12.07;;
46407;SDS011;32110;45.724;21.276;2024-02-16T08:46:35;25.65;;;11.48;;
46407;SDS011;32110;45.724;21.276;2024-02-16T08:49:02;25.08;;;12.15;;
46407;SDS011;32110;45.724;21.276;2024-02-16T08:51:28;36.38;;;13.57;;
46407;SDS011;32110;45.724;21.276;2024-02-16T08:53:54;44.00;;;17.27;;
46407;SDS011;32110;45.724;21.276;2024-02-16T08:56:19;26.27;;;13.40;;
46407;SDS011;32110;45.724;21.276;2024-02-16T08:58:45;24.13;;;13.13;;
46407;SDS011;32110;45.724;21.276;2024-02-16T09:01:10;28.88;;;13.10;;
46407;SDS011;32110;45.724;21.276;2024-02-16T09:03:36;27.73;;;13.73;;
46407;SDS011;32110;45.724;21.276;2024-02-16T09:06:03;30.38;;;13.85;;
46407;SDS011;32110;45.724;21.276;2024-02-16T09:08:29;29.50;;;12.30;;
46407;SDS011;32110;45.724;21.276;2024-02-16T09:11:01;24.27;;;12.67;;
46407;SDS011;32110;45.724;21.276;2024-02-16T09:13:33;26.00;;;13.48;;
46407;SDS011;32110;45.724;21.276;2024-02-16T09:16:01;28.08;;;13.45;;
46407;SDS011;32110;45.724;21.276;2024-02-16T09:18:28;26.20;;;12.80;;
46407;SDS011;32110;45.724;21.276;2024-02-16T09:20:54;27.35;;;13.32;;
46407;SDS011;32110;45.724;21.276;2024-02-16T09:23:20;22.92;;;12.27;;
46407;SDS011;32110;45.724;21.276;2024-02-16T09:25:45;23.83;;;12.80;;
46407;SDS011;32110;45.724;21.276;2024-02-16T09:28:11;25.13;;;12.27;;
46407;SDS011;32110;45.724;21.276;2024-02-16T09:30:37;26.77;;;14.13;;
46407;SDS011;32110;45.724;21.276;2024-02-16T09:33:03;25.48;;;13.15;;
46407;SDS011;32110;45.724;21.276;2024-02-16T09:35:29;23.90;;;12.85;;
46407;SDS011;32110;45.724;21.276;2024-02-16T09:37:54;27.15;;;13.68;;
46407;SDS011;32110;45.724;21.276;2024-02-16T09:40:21;28.00;;;12.75;;
46407;SDS011;32110;45.724;21.276;2024-02-16T09:42:49;26.08;;;12.93;;
46407;SDS011;32110;45.724;21.276;2024-02-16T09:45:15;25.90;;;13.45;;
46407;SDS011;32110;45.724;21.276;2024-02-16T09:47:42;25.33;;;13.15;;
46407;SDS011;32110;45.724;21.276;2024-02-16T09:50:12;25.63;;;13.13;;
46407;SDS011;32110;45.724;21.276;2024-02-16T09:52:38;26.40;;;14.02;;
46407;SDS011;32110;45.724;21.276;2024-02-16T09:55:06;27.48;;;13.45;;
46407;SDS011;32110;45.724;21.276;2024-02-16T09:57:36;22.05;;;12.50;;
46407;SDS011;32110;45.724;21.276;2024-02-16T10:00:02;30.27;;;13.63;;
46407;SDS011;32110;45.724;21.276;2024-02-16T10:02:38;27.05;;;14.63;;
46407;SDS011;32110;45.724;21.276;2024-02-16T10:07:36;24.13;;;12.03;;
46407;SDS011;32110;45.724;21.276;2024-02-16T10:10:02;23.92;;;12.23;;
46407;SDS011;32110;45.724;21.276;2024-02-16T10:12:29;21.75;;;11.80;;
46407;SDS011;32110;45.724;21.276;2024-02-16T10:14:55;23.95;;;11.95;;
46407;SDS011;32110;45.724;21.276;2024-02-16T10:17:21;20.60;;;11.55;;
46407;SDS011;32110;45.724;21.276;2024-02-16T10:19:55;22.38;;;11.93;;
46407;SDS011;32110;45.724;21.276;2024-02-16T10:22:21;22.15;;;11.45;;
46407;SDS011;32110;45.724;21.276;2024-02-16T10:24:48;23.77;;;12.15;;
46407;SDS011;32110;45.724;21.276;2024-02-16T10:27:15;22.63;;;11.48;;
46407;SDS011;32110;45.724;21.276;2024-02-16T10:29:44;23.10;;;11.32;;
46407;SDS011;32110;45.724;21.276;2024-02-16T10:32:14;20.45;;;11.55;;
46407;SDS011;32110;45.724;21.276;2024-02-16T10:34:40;20.83;;;11.75;;
46407;SDS011;32110;45.724;21.276;2024-02-16T10:37:06;22.45;;;11.98;;
46407;SDS011;32110;45.724;21.276;2024-02-16T10:39:32;22.08;;;11.30;;
46407;SDS011;32110;45.724;21.276;2024-02-16T10:41:58;18.42;;;11.10;;
46407;SDS011;32110;45.724;21.276;2024-02-16T10:44:27;19.88;;;11.15;;
46407;SDS011;32110;45.724;21.276;2024-02-16T10:46:53;22.33;;;11.10;;
46407;SDS011;32110;45.724;21.276;2024-02-16T10:49:21;17.48;;;9.82;;
46407;SDS011;32110;45.724;21.276;2024-02-16T10:51:49;21.67;;;10.57;;
46407;SDS011;32110;45.724;21.276;2024-02-16T10:54:22;19.17;;;10.10;;
46407;SDS011;32110;45.724;21.276;2024-02-16T10:56:53;20.77;;;11.13;;
46407;SDS011;32110;45.724;21.276;2024-02-16T10:59:19;18.02;;;10.23;;
46407;SDS011;32110;45.724;21.276;2024-02-16T11:01:45;19.15;;;10.57;;
46407;SDS011;32110;45.724;21.276;2024-02-16T11:04:15;18.98;;;10.45;;
46407;SDS011;32110;45.724;21.276;2024-02-16T11:06:51;21.13;;;10.60;;
46407;SDS011;32110;45.724;21.276;2024-02-16T11:09:44;20.92;;;11.20;;
46407;SDS011;32110;45.724;21.276;2024-02-16T11:12:11;18.63;;;10.35;;
46407;SDS011;32110;45.724;21.276;2024-02-16T11:14:38;19.17;;;10.00;;
46407;SDS011;32110;45.724;21.276;2024-02-16T11:17:20;19.55;;;10.07;;
46407;SDS011;32110;45.724;21.276;2024-02-16T11:19:47;18.05;;;9.27;;
46407;SDS011;32110;45.724;21.276;2024-02-16T11:22:16;15.65;;;9.57;;
46407;SDS011;32110;45.724;21.276;2024-02-16T11:24:47;17.30;;;9.35;;
46407;SDS011;32110;45.724;21.276;2024-02-16T11:27:14;15.73;;;8.85;;
46407;SDS011;32110;45.724;21.276;2024-02-16T11:29:43;17.00;;;10.02;;
46407;SDS011;32110;45.724;21.276;2024-02-16T11:32:10;16.45;;;9.93;;
46407;SDS011;32110;45.724;21.276;2024-02-16T11:34:35;18.25;;;10.45;;
46407;SDS011;32110;45.724;21.276;2024-02-16T11:37:03;16.33;;;7.95;;
46407;SDS011;32110;45.724;21.276;2024-02-16T11:39:30;14.10;;;7.97;;
46407;SDS011;32110;45.724;21.276;2024-02-16T11:42:03;14.88;;;8.43;;
46407;SDS011;32110;45.724;21.276;2024-02-16T11:44:30;14.65;;;8.40;;
46407;SDS011;32110;45.724;21.276;2024-02-16T11:47:00;14.15;;;7.95;;
46407;SDS011;32110;45.724;21.276;2024-02-16T11:49:27;15.32;;;7.55;;
46407;SDS011;32110;45.724;21.276;2024-02-16T11:51:54;11.68;;;7.40;;
46407;SDS011;32110;45.724;21.276;2024-02-16T11:54:20;14.48;;;7.85;;
46407;SDS011;32110;45.724;21.276;2024-02-16T11:56:46;12.50;;;7.70;;
46407;SDS011;32110;45.724;21.276;2024-02-16T11:59:13;15.18;;;8.52;;
46407;SDS011;32110;45.724;21.276;2024-02-16T12:01:52;17.17;;;8.95;;
46407;SDS011;32110;45.724;21.276;2024-02-16T12:04:25;10.93;;;7.25;;
46407;SDS011;32110;45.724;21.276;2024-02-16T12:06:55;12.30;;;7.72;;
46407;SDS011;32110;45.724;21.276;2024-02-16T12:09:26;14.35;;;8.45;;
46407;SDS011;32110;45.724;21.276;2024-02-16T12:11:53;17.45;;;8.65;;
46407;SDS011;32110;45.724;21.276;2024-02-16T12:14:21;15.38;;;8.35;;
46407;SDS011;32110;45.724;21.276;2024-02-16T12:16:50;18.33;;;8.88;;
46407;SDS011;32110;45.724;21.276;2024-02-16T12:19:20;13.88;;;8.32;;
46407;SDS011;32110;45.724;21.276;2024-02-16T12:21:53;16.13;;;8.75;;
46407;SDS011;32110;45.724;21.276;2024-02-16T12:24:24;19.27;;;8.57;;
46407;SDS011;32110;45.724;21.276;2024-02-16T12:26:50;14.55;;;8.27;;
46407;SDS011;32110;45.724;21.276;2024-02-16T12:29:16;15.20;;;9.13;;
46407;SDS011;32110;45.724;21.276;2024-02-16T12:31:42;14.38;;;8.60;;
46407;SDS011;32110;45.724;21.276;2024-02-16T12:34:09;14.57;;;8.77;;
46407;SDS011;32110;45.724;21.276;2024-02-16T12:36:36;15.18;;;8.88;;
46407;SDS011;32110;45.724;21.276;2024-02-16T12:39:02;14.10;;;8.45;;
46407;SDS011;32110;45.724;21.276;2024-02-16T12:41:29;14.07;;;7.72;;
46407;SDS011;32110;45.724;21.276;2024-02-16T12:43:55;16.27;;;8.63;;
46407;SDS011;32110;45.724;21.276;2024-02-16T12:46:21;14.20;;;8.77;;
46407;SDS011;32110;45.724;21.276;2024-02-16T12:48:46;15.57;;;8.45;;
46407;SDS011;32110;45.724;21.276;2024-02-16T12:51:11;15.27;;;8.63;;
46407;SDS011;32110;45.724;21.276;2024-02-16T12:53:37;13.23;;;8.35;;
46407;SDS011;32110;45.724;21.276;2024-02-16T12:56:08;14.10;;;8.20;;
46407;SDS011;32110;45.724;21.276;2024-02-16T12:58:38;14.73;;;8.43;;
46407;SDS011;32110;45.724;21.276;2024-02-16T13:01:04;13.82;;;8.85;;
46407;SDS011;32110;45.724;21.276;2024-02-16T13:03:36;15.95;;;9.38;;
46407;SDS011;32110;45.724;21.276;2024-02-16T13:06:04;14.15;;;7.93;;
46407;SDS011;32110;45.724;21.276;2024-02-16T13:08:30;17.23;;;8.45;;
46407;SDS011;32110;45.724;21.276;2024-02-16T13:10:56;14.05;;;8.30;;
46407;SDS011;32110;45.724;21.276;2024-02-16T13:13:23;15.00;;;8.40;;
46407;SDS011;32110;45.724;21.276;2024-02-16T13:15:49;15.38;;;8.73;;
46407;SDS011;32110;45.724;21.276;2024-02-16T13:18:15;14.15;;;8.70;;
46407;SDS011;32110;45.724;21.276;2024-02-16T13:20:41;15.07;;;8.70;;
46407;SDS011;32110;45.724;21.276;2024-02-16T13:23:07;12.73;;;7.93;;
46407;SDS011;32110;45.724;21.276;2024-02-16T13:25:32;12.95;;;8.00;;
46407;SDS011;32110;45.724;21.276;2024-02-16T13:27:58;13.13;;;8.05;;
46407;SDS011;32110;45.724;21.276;2024-02-16T13:30:24;14.63;;;8.10;;
46407;SDS011;32110;45.724;21.276;2024-02-16T13:32:50;14.73;;;7.70;;
46407;SDS011;32110;45.724;21.276;2024-02-16T13:35:16;11.40;;;6.97;;
46407;SDS011;32110;45.724;21.276;2024-02-16T13:37:41;13.80;;;8.30;;
46407;SDS011;32110;45.724;21.276;2024-02-16T13:40:07;19.90;;;7.65;;
46407;SDS011;32110;45.724;21.276;2024-02-16T13:42:37;15.20;;;7.35;;
46407;SDS011;32110;45.724;21.276;2024-02-16T13:45:04;12.13;;;7.18;;
46407;SDS011;32110;45.724;21.276;2024-02-16T13:47:29;12.80;;;7.72;;
46407;SDS011;32110;45.724;21.276;2024-02-16T13:49:55;13.90;;;7.95;;
46407;SDS011;32110;45.724;21.276;2024-02-16T13:52:22;12.88;;;7.22;;
46407;SDS011;32110;45.724;21.276;2024-02-16T13:54:49;12.35;;;7.07;;
46407;SDS011;32110;45.724;21.276;2024-02-16T13:57:14;10.82;;;7.03;;
46407;SDS011;32110;45.724;21.276;2024-02-16T13:59:40;11.82;;;7.00;;
46407;SDS011;32110;45.724;21.276;2024-02-16T14:02:06;12.95;;;7.35;;
46407;SDS011;32110;45.724;21.276;2024-02-16T14:04:32;12.65;;;6.78;;
46407;SDS011;32110;45.724;21.276;2024-02-16T14:06:58;12.00;;;6.90;;
46407;SDS011;32110;45.724;21.276;2024-02-16T14:09:23;12.27;;;7.30;;
46407;SDS011;32110;45.724;21.276;2024-02-16T14:11:49;14.38;;;7.72;;
46407;SDS011;32110;45.724;21.276;2024-02-16T14:14:16;12.43;;;7.72;;
46407;SDS011;32110;45.724;21.276;2024-02-16T14:16:41;13.57;;;7.57;;